Time;durP1;ratioP1;P1;durP2;ratioP2;P2;SDS_P1;SDS_P2;PMS_P1;PMS_P2;Temp;Humidity;BMP_temperature;BMP_pressure;BME280_temperature;BME280_humidity;BME280_pressure;Samples;Min_cycle;Max_cycle;Signal;HPM_P1;HPM_P2
2019/04/29 00:00:44;;;;;;;3.9;3.05;;;;;;;5.49;65.33105;95480.69;;;;
2019/04/29 00:01:48;;;;;;;3.9;3.05;;;;;;;5.49;65.33105;95480.69;;;;
2019/04/29 00:02:50;;;;;;;3.9;3.05;;;;;;;5.49;65.33105;95480.69;;;;
2019/04/29 00:03:51;;;;;;;3.9;3.05;;;;;;;5.49;65.33105;95480.69;;;;
2019/04/29 00:04:52;;;;;;;3.9;3.05;;;;;;;5.49;65.33105;95480.69;;;;
2019/04/29 00:05:53;;;;;;;3.9;3.05;;;;;;;5.49;65.33105;95480.69;;;;
2019/04/29 00:06:54;;;;;;;3.9;3.05;;;;;;;5.49;65.33105;95480.69;;;;
2019/04/29 00:07:55;;;;;;;3.9;3.05;;;;;;;5.49;65.33105;95480.69;;;;
2019/04/29 00:08:56;;;;;;;3.65;3;;;;;;;5.58;65.8125;95477.73;;;;
2019/04/29 00:09:57;;;;;;;3.65;3;;;;;;;5.58;65.8125;95477.73;;;;
2019/04/29 00:10:58;;;;;;;3.65;3;;;;;;;5.58;65.8125;95477.73;;;;
2019/04/29 00:11:59;;;;;;;3.65;3;;;;;;;5.58;65.8125;95477.73;;;;
2019/04/29 00:13:00;;;;;;;3.65;3;;;;;;;5.58;65.8125;95477.73;;;;
2019/04/29 00:14:01;;;;;;;3.65;3;;;;;;;5.58;65.8125;95477.73;;;;
2019/04/29 00:15:15;;;;;;;3.65;3;;;;;;;5.58;65.8125;95477.73;;;;
2019/04/29 00:16:27;;;;;;;3.65;3;;;;;;;5.58;65.8125;95477.73;;;;
2019/04/29 00:17:35;;;;;;;3.65;3;;;;;;;5.58;65.8125;95477.73;;;;
2019/04/29 00:18:53;;;;;;;3.65;3;;;;;;;5.58;65.8125;95477.73;;;;
2019/04/29 00:20:17;;;;;;;3.900001;3.35;;;;;;;5.56;65.91504;95471.74;;;;
2019/04/29 00:21:19;;;;;;;3.900001;3.35;;;;;;;5.56;65.91504;95471.74;;;;
2019/04/29 00:22:20;;;;;;;3.900001;3.35;;;;;;;5.56;65.91504;95471.74;;;;
2019/04/29 00:23:21;;;;;;;3.900001;3.35;;;;;;;5.56;65.91504;95471.74;;;;
2019/04/29 00:24:22;;;;;;;3.900001;3.35;;;;;;;5.56;65.91504;95471.74;;;;
2019/04/29 00:25:23;;;;;;;3.900001;3.35;;;;;;;5.56;65.91504;95471.74;;;;
2019/04/29 00:26:24;;;;;;;3.900001;3.35;;;;;;;5.56;65.91504;95471.74;;;;
2019/04/29 00:27:25;;;;;;;3.900001;3.35;;;;;;;5.56;65.91504;95471.74;;;;
2019/04/29 00:28:26;;;;;;;3.900001;3.35;;;;;;;5.56;65.91504;95471.74;;;;
2019/04/29 00:29:27;;;;;;;3.900001;3.35;;;;;;;5.56;65.91504;95471.74;;;;
2019/04/29 00:30:28;;;;;;;4.2;3.8;;;;;;;5.66;66.77832;95479.41;;;;
2019/04/29 00:31:29;;;;;;;4.2;3.8;;;;;;;5.66;66.77832;95479.41;;;;
2019/04/29 00:32:30;;;;;;;4.2;3.8;;;;;;;5.66;66.77832;95479.41;;;;
2019/04/29 00:33:31;;;;;;;4.2;3.8;;;;;;;5.66;66.77832;95479.41;;;;
2019/04/29 00:34:32;;;;;;;4.2;3.8;;;;;;;5.66;66.77832;95479.41;;;;
2019/04/29 00:35:33;;;;;;;4.2;3.8;;;;;;;5.66;66.77832;95479.41;;;;
2019/04/29 00:36:43;;;;;;;4.2;3.8;;;;;;;5.66;66.77832;95479.41;;;;
2019/04/29 00:38:01;;;;;;;4.2;3.8;;;;;;;5.66;66.77832;95479.41;;;;
2019/04/29 00:44:14;;;;;;;4.8;3.5;;;;;;;5.61;66.66504;95478.69;;;;
2019/04/29 00:45:15;;;;;;;4.8;3.5;;;;;;;5.61;66.66504;95478.69;;;;
2019/04/29 00:46:16;;;;;;;4.8;3.5;;;;;;;5.61;66.66504;95478.69;;;;
2019/04/29 00:47:17;;;;;;;4.8;3.5;;;;;;;5.61;66.66504;95478.69;;;;
2019/04/29 00:48:18;;;;;;;4.8;3.5;;;;;;;5.61;66.66504;95478.69;;;;
2019/04/29 00:49:19;;;;;;;4.8;3.5;;;;;;;5.61;66.66504;95478.69;;;;
2019/04/29 00:50:20;;;;;;;4.8;3.5;;;;;;;5.61;66.66504;95478.69;;;;
2019/04/29 00:51:21;;;;;;;4.45;3.7;;;;;;;5.66;66.62988;95478.49;;;;
2019/04/29 00:52:22;;;;;;;4.45;3.7;;;;;;;5.66;66.62988;95478.49;;;;
2019/04/29 00:53:24;;;;;;;4.45;3.7;;;;;;;5.66;66.62988;95478.49;;;;
2019/04/29 00:54:32;;;;;;;4.45;3.7;;;;;;;5.66;66.62988;95478.49;;;;
2019/04/29 00:55:34;;;;;;;4.45;3.7;;;;;;;5.66;66.62988;95478.49;;;;
2019/04/29 00:56:35;;;;;;;4.45;3.7;;;;;;;5.66;66.62988;95478.49;;;;
2019/04/29 00:57:36;;;;;;;4.45;3.7;;;;;;;5.66;66.62988;95478.49;;;;
2019/04/29 00:58:37;;;;;;;4.45;3.7;;;;;;;5.66;66.62988;95478.49;;;;
2019/04/29 00:59:38;;;;;;;4.45;3.7;;;;;;;5.66;66.62988;95478.49;;;;
2019/04/29 01:00:40;;;;;;;4.45;3.7;;;;;;;5.66;66.62988;95478.49;;;;
2019/04/29 01:01:41;;;;;;;4.7;4.199999;;;;;;;5.61;66.5918;95483.09;;;;
2019/04/29 01:02:43;;;;;;;4.7;4.199999;;;;;;;5.61;66.5918;95483.09;;;;
2019/04/29 01:03:44;;;;;;;4.7;4.199999;;;;;;;5.61;66.5918;95483.09;;;;
2019/04/29 01:04:45;;;;;;;4.7;4.199999;;;;;;;5.61;66.5918;95483.09;;;;
2019/04/29 01:05:46;;;;;;;4.7;4.199999;;;;;;;5.61;66.5918;95483.09;;;;
2019/04/29 01:06:47;;;;;;;4.7;4.199999;;;;;;;5.61;66.5918;95483.09;;;;
2019/04/29 01:07:48;;;;;;;4.7;4.199999;;;;;;;5.61;66.5918;95483.09;;;;
2019/04/29 01:08:49;;;;;;;4.7;4.199999;;;;;;;5.61;66.5918;95483.09;;;;
2019/04/29 01:09:50;;;;;;;4.7;4.199999;;;;;;;5.61;66.5918;95483.09;;;;
2019/04/29 01:10:51;;;;;;;4.7;4.199999;;;;;;;5.61;66.5918;95483.09;;;;
2019/04/29 01:11:52;;;;;;;4.7;4.199999;;;;;;;5.61;66.5918;95483.09;;;;
2019/04/29 01:12:53;;;;;;;4.95;4.099999;;;;;;;5.67;66.80078;95485.49;;;;
2019/04/29 01:13:55;;;;;;;4.95;4.099999;;;;;;;5.67;66.80078;95485.49;;;;
2019/04/29 01:14:56;;;;;;;4.95;4.099999;;;;;;;5.67;66.80078;95485.49;;;;
2019/04/29 01:15:57;;;;;;;4.95;4.099999;;;;;;;5.67;66.80078;95485.49;;;;
2019/04/29 01:16:58;;;;;;;4.95;4.099999;;;;;;;5.67;66.80078;95485.49;;;;
2019/04/29 01:17:59;;;;;;;4.95;4.099999;;;;;;;5.67;66.80078;95485.49;;;;
2019/04/29 01:19:00;;;;;;;4.95;4.099999;;;;;;;5.67;66.80078;95485.49;;;;
2019/04/29 01:20:01;;;;;;;4.95;4.099999;;;;;;;5.67;66.80078;95485.49;;;;
2019/04/29 01:21:03;;;;;;;4.95;4.099999;;;;;;;5.67;66.80078;95485.49;;;;
2019/04/29 01:22:04;;;;;;;4.95;4.099999;;;;;;;5.67;66.80078;95485.49;;;;
2019/04/29 01:23:05;;;;;;;5.35;4.35;;;;;;;5.63;66.87793;95483.84;;;;
2019/04/29 01:24:06;;;;;;;5.35;4.35;;;;;;;5.63;66.87793;95483.84;;;;
2019/04/29 01:25:07;;;;;;;5.35;4.35;;;;;;;5.63;66.87793;95483.84;;;;
2019/04/29 01:26:25;;;;;;;5.35;4.35;;;;;;;5.63;66.87793;95483.84;;;;
2019/04/29 01:27:34;;;;;;;5.35;4.35;;;;;;;5.63;66.87793;95483.84;;;;
2019/04/29 01:28:42;;;;;;;5.35;4.35;;;;;;;5.63;66.87793;95483.84;;;;
2019/04/29 01:29:43;;;;;;;5.35;4.35;;;;;;;5.63;66.87793;95483.84;;;;
2019/04/29 01:30:45;;;;;;;5.35;4.35;;;;;;;5.63;66.87793;95483.84;;;;
2019/04/29 01:34:02;;;;;;;5.3;4.25;;;;;;;5.62;67.00488;95485.69;;;;
2019/04/29 01:35:06;;;;;;;5.3;4.25;;;;;;;5.62;67.00488;95485.69;;;;
2019/04/29 01:37:03;;;;;;;5.3;4.25;;;;;;;5.62;67.00488;95485.69;;;;
2019/04/29 01:38:04;;;;;;;5.3;4.25;;;;;;;5.62;67.00488;95485.69;;;;
2019/04/29 01:39:05;;;;;;;5.3;4.25;;;;;;;5.62;67.00488;95485.69;;;;
2019/04/29 01:40:21;;;;;;;5.3;4.25;;;;;;;5.62;67.00488;95485.69;;;;
2019/04/29 01:41:31;;;;;;;5.3;4.25;;;;;;;5.62;67.00488;95485.69;;;;
2019/04/29 01:42:36;;;;;;;5.3;4.25;;;;;;;5.62;67.00488;95485.69;;;;
2019/04/29 01:44:09;;;;;;;5.3;4.25;;;;;;;5.62;67.00488;95485.69;;;;
2019/04/29 01:45:10;;;;;;;5.400001;4.4;;;;;;;5.55;67.09961;95484.83;;;;
2019/04/29 01:46:11;;;;;;;5.400001;4.4;;;;;;;5.55;67.09961;95484.83;;;;
2019/04/29 01:47:12;;;;;;;5.400001;4.4;;;;;;;5.55;67.09961;95484.83;;;;
2019/04/29 01:48:13;;;;;;;5.400001;4.4;;;;;;;5.55;67.09961;95484.83;;;;
2019/04/29 01:49:14;;;;;;;5.400001;4.4;;;;;;;5.55;67.09961;95484.83;;;;
2019/04/29 01:50:15;;;;;;;5.400001;4.4;;;;;;;5.55;67.09961;95484.83;;;;
2019/04/29 01:51:16;;;;;;;5.400001;4.4;;;;;;;5.55;67.09961;95484.83;;;;
2019/04/29 01:52:17;;;;;;;5.400001;4.4;;;;;;;5.55;67.09961;95484.83;;;;
2019/04/29 01:53:18;;;;;;;5.400001;4.4;;;;;;;5.55;67.09961;95484.83;;;;
2019/04/29 01:54:20;;;;;;;6.649999;4.600001;;;;;;;5.56;67.32324;95480.31;;;;
2019/04/29 01:55:21;;;;;;;6.649999;4.600001;;;;;;;5.56;67.32324;95480.31;;;;
2019/04/29 01:56:22;;;;;;;6.649999;4.600001;;;;;;;5.56;67.32324;95480.31;;;;
2019/04/29 01:57:23;;;;;;;6.649999;4.600001;;;;;;;5.56;67.32324;95480.31;;;;
2019/04/29 01:58:24;;;;;;;6.649999;4.600001;;;;;;;5.56;67.32324;95480.31;;;;
2019/04/29 01:59:25;;;;;;;6.649999;4.600001;;;;;;;5.56;67.32324;95480.31;;;;
2019/04/29 02:00:26;;;;;;;6.649999;4.600001;;;;;;;5.56;67.32324;95480.31;;;;
2019/04/29 02:01:27;;;;;;;6.649999;4.600001;;;;;;;5.56;67.32324;95480.31;;;;
2019/04/29 02:02:28;;;;;;;6.649999;4.600001;;;;;;;5.56;67.32324;95480.31;;;;
2019/04/29 02:03:29;;;;;;;6.649999;4.600001;;;;;;;5.56;67.32324;95480.31;;;;
2019/04/29 02:04:31;;;;;;;6.649999;4.600001;;;;;;;5.56;67.32324;95480.31;;;;
2019/04/29 02:05:32;;;;;;;5.05;4.3;;;;;;;5.49;67.52344;95476.78;;;;
2019/04/29 02:06:33;;;;;;;5.05;4.3;;;;;;;5.49;67.52344;95476.78;;;;
2019/04/29 02:07:34;;;;;;;5.05;4.3;;;;;;;5.49;67.52344;95476.78;;;;
2019/04/29 02:08:35;;;;;;;5.05;4.3;;;;;;;5.49;67.52344;95476.78;;;;
2019/04/29 02:09:43;;;;;;;5.05;4.3;;;;;;;5.49;67.52344;95476.78;;;;
2019/04/29 02:10:45;;;;;;;5.05;4.3;;;;;;;5.49;67.52344;95476.78;;;;
2019/04/29 02:11:46;;;;;;;5.05;4.3;;;;;;;5.49;67.52344;95476.78;;;;
2019/04/29 02:12:48;;;;;;;5.05;4.3;;;;;;;5.49;67.52344;95476.78;;;;
2019/04/29 02:13:49;;;;;;;5.05;4.3;;;;;;;5.49;67.52344;95476.78;;;;
2019/04/29 02:14:50;;;;;;;5.05;4.3;;;;;;;5.49;67.52344;95476.78;;;;
2019/04/29 02:15:51;;;;;;;7.15;4.55;;;;;;;5.48;67.87305;95465.23;;;;
2019/04/29 02:16:52;;;;;;;7.15;4.55;;;;;;;5.48;67.87305;95465.23;;;;
2019/04/29 02:17:53;;;;;;;7.15;4.55;;;;;;;5.48;67.87305;95465.23;;;;
2019/04/29 02:18:54;;;;;;;7.15;4.55;;;;;;;5.48;67.87305;95465.23;;;;
2019/04/29 02:19:55;;;;;;;7.15;4.55;;;;;;;5.48;67.87305;95465.23;;;;
2019/04/29 02:20:57;;;;;;;7.15;4.55;;;;;;;5.48;67.87305;95465.23;;;;
2019/04/29 02:27:06;;;;;;;5.5;4.5;;;;;;;5.44;67.92969;95462.22;;;;
2019/04/29 02:28:07;;;;;;;5.5;4.5;;;;;;;5.44;67.92969;95462.22;;;;
2019/04/29 02:29:08;;;;;;;5.5;4.5;;;;;;;5.44;67.92969;95462.22;;;;
2019/04/29 02:30:09;;;;;;;5.5;4.5;;;;;;;5.44;67.92969;95462.22;;;;
2019/04/29 02:31:43;;;;;;;5.5;4.5;;;;;;;5.44;67.92969;95462.22;;;;
2019/04/29 02:32:44;;;;;;;5.5;4.5;;;;;;;5.44;67.92969;95462.22;;;;
2019/04/29 02:33:45;;;;;;;5.5;4.5;;;;;;;5.44;67.92969;95462.22;;;;
2019/04/29 02:34:47;;;;;;;5.5;4.5;;;;;;;5.44;67.92969;95462.22;;;;
2019/04/29 02:35:48;;;;;;;5.5;4.5;;;;;;;5.44;67.92969;95462.22;;;;
2019/04/29 02:36:49;;;;;;;5.55;4.35;;;;;;;5.47;68.32715;95454.61;;;;
2019/04/29 02:37:50;;;;;;;5.55;4.35;;;;;;;5.47;68.32715;95454.61;;;;
2019/04/29 02:39:02;;;;;;;5.55;4.35;;;;;;;5.47;68.32715;95454.61;;;;
2019/04/29 02:40:14;;;;;;;5.55;4.35;;;;;;;5.47;68.32715;95454.61;;;;
2019/04/29 02:41:23;;;;;;;5.55;4.35;;;;;;;5.47;68.32715;95454.61;;;;
2019/04/29 02:45:32;;;;;;;5.55;4.35;;;;;;;5.47;68.32715;95454.61;;;;
2019/04/29 02:46:34;;;;;;;5.55;4.35;;;;;;;5.47;68.32715;95454.61;;;;
2019/04/29 02:47:35;;;;;;;6.85;4.9;;;;;;;5.43;68.38477;95451.64;;;;
2019/04/29 02:48:36;;;;;;;6.85;4.9;;;;;;;5.43;68.38477;95451.64;;;;
2019/04/29 02:49:37;;;;;;;6.85;4.9;;;;;;;5.43;68.38477;95451.64;;;;
2019/04/29 02:50:38;;;;;;;6.85;4.9;;;;;;;5.43;68.38477;95451.64;;;;
2019/04/29 02:51:45;;;;;;;6.85;4.9;;;;;;;5.43;68.38477;95451.64;;;;
2019/04/29 02:52:47;;;;;;;6.85;4.9;;;;;;;5.43;68.38477;95451.64;;;;
2019/04/29 02:53:48;;;;;;;6.85;4.9;;;;;;;5.43;68.38477;95451.64;;;;
2019/04/29 02:54:50;;;;;;;6.85;4.9;;;;;;;5.43;68.38477;95451.64;;;;
2019/04/29 02:55:53;;;;;;;6.85;4.9;;;;;;;5.43;68.38477;95451.64;;;;
2019/04/29 02:57:02;;;;;;;6.85;4.9;;;;;;;5.43;68.38477;95451.64;;;;
2019/04/29 02:58:08;;;;;;;5.849999;5.25;;;;;;;5.45;68.61035;95445.15;;;;
2019/04/29 02:59:10;;;;;;;5.849999;5.25;;;;;;;5.45;68.61035;95445.15;;;;
2019/04/29 03:01:14;;;;;;;5.849999;5.25;;;;;;;5.45;68.61035;95445.15;;;;
2019/04/29 03:02:58;;;;;;;5.849999;5.25;;;;;;;5.45;68.61035;95445.15;;;;
2019/04/29 03:04:05;;;;;;;5.849999;5.25;;;;;;;5.45;68.61035;95445.15;;;;
2019/04/29 03:05:10;;;;;;;5.849999;5.25;;;;;;;5.45;68.61035;95445.15;;;;
2019/04/29 03:06:11;;;;;;;5.849999;5.25;;;;;;;5.45;68.61035;95445.15;;;;
2019/04/29 03:07:12;;;;;;;5.849999;5.25;;;;;;;5.45;68.61035;95445.15;;;;
2019/04/29 03:08:13;;;;;;;5.849999;5.25;;;;;;;5.45;68.61035;95445.15;;;;
2019/04/29 03:09:14;;;;;;;6.4;5.15;;;;;;;5.36;68.74512;95455.19;;;;
2019/04/29 03:10:15;;;;;;;6.4;5.15;;;;;;;5.36;68.74512;95455.19;;;;
2019/04/29 03:11:16;;;;;;;6.4;5.15;;;;;;;5.36;68.74512;95455.19;;;;
2019/04/29 03:12:17;;;;;;;6.4;5.15;;;;;;;5.36;68.74512;95455.19;;;;
2019/04/29 03:13:18;;;;;;;6.4;5.15;;;;;;;5.36;68.74512;95455.19;;;;
2019/04/29 03:14:19;;;;;;;6.4;5.15;;;;;;;5.36;68.74512;95455.19;;;;
2019/04/29 03:15:21;;;;;;;6.4;5.15;;;;;;;5.36;68.74512;95455.19;;;;
2019/04/29 03:16:29;;;;;;;6.4;5.15;;;;;;;5.36;68.74512;95455.19;;;;
2019/04/29 03:17:30;;;;;;;6.4;5.15;;;;;;;5.36;68.74512;95455.19;;;;
2019/04/29 03:18:34;;;;;;;6.4;5.15;;;;;;;5.36;68.74512;95455.19;;;;
2019/04/29 03:20:09;;;;;;;6.550002;5.4;;;;;;;5.36;69.08301;95456.64;;;;
2019/04/29 03:21:16;;;;;;;6.550002;5.4;;;;;;;5.36;69.08301;95456.64;;;;
2019/04/29 03:22:17;;;;;;;6.550002;5.4;;;;;;;5.36;69.08301;95456.64;;;;
2019/04/29 03:23:20;;;;;;;6.550002;5.4;;;;;;;5.36;69.08301;95456.64;;;;
2019/04/29 03:24:21;;;;;;;6.550002;5.4;;;;;;;5.36;69.08301;95456.64;;;;
2019/04/29 03:25:22;;;;;;;6.550002;5.4;;;;;;;5.36;69.08301;95456.64;;;;
2019/04/29 03:26:23;;;;;;;6.550002;5.4;;;;;;;5.36;69.08301;95456.64;;;;
2019/04/29 03:27:24;;;;;;;6.550002;5.4;;;;;;;5.36;69.08301;95456.64;;;;
2019/04/29 03:28:25;;;;;;;6.550002;5.4;;;;;;;5.36;69.08301;95456.64;;;;
2019/04/29 03:29:26;;;;;;;6.550002;5.4;;;;;;;5.36;69.08301;95456.64;;;;
2019/04/29 03:30:27;;;;;;;6.75;5.299999;;;;;;;5.24;69.09668;95449.17;;;;
2019/04/29 03:31:28;;;;;;;6.75;5.299999;;;;;;;5.24;69.09668;95449.17;;;;
2019/04/29 03:32:29;;;;;;;6.75;5.299999;;;;;;;5.24;69.09668;95449.17;;;;
2019/04/29 03:33:30;;;;;;;6.75;5.299999;;;;;;;5.24;69.09668;95449.17;;;;
2019/04/29 03:34:31;;;;;;;6.75;5.299999;;;;;;;5.24;69.09668;95449.17;;;;
2019/04/29 03:35:32;;;;;;;6.75;5.299999;;;;;;;5.24;69.09668;95449.17;;;;
2019/04/29 03:36:33;;;;;;;6.75;5.299999;;;;;;;5.24;69.09668;95449.17;;;;
2019/04/29 03:37:34;;;;;;;6.75;5.299999;;;;;;;5.24;69.09668;95449.17;;;;
2019/04/29 03:38:35;;;;;;;6.75;5.299999;;;;;;;5.24;69.09668;95449.17;;;;
2019/04/29 03:39:36;;;;;;;6.75;5.299999;;;;;;;5.24;69.09668;95449.17;;;;
2019/04/29 03:40:37;;;;;;;6.2;5.200001;;;;;;;5.15;69.52539;95450.87;;;;
2019/04/29 03:41:39;;;;;;;6.2;5.200001;;;;;;;5.15;69.52539;95450.87;;;;
2019/04/29 03:42:40;;;;;;;6.2;5.200001;;;;;;;5.15;69.52539;95450.87;;;;
2019/04/29 03:43:41;;;;;;;6.2;5.200001;;;;;;;5.15;69.52539;95450.87;;;;
2019/04/29 03:44:42;;;;;;;6.2;5.200001;;;;;;;5.15;69.52539;95450.87;;;;
2019/04/29 03:45:43;;;;;;;6.2;5.200001;;;;;;;5.15;69.52539;95450.87;;;;
2019/04/29 03:46:44;;;;;;;6.2;5.200001;;;;;;;5.15;69.52539;95450.87;;;;
2019/04/29 03:47:45;;;;;;;6.2;5.200001;;;;;;;5.15;69.52539;95450.87;;;;
2019/04/29 03:48:46;;;;;;;6.2;5.200001;;;;;;;5.15;69.52539;95450.87;;;;
2019/04/29 03:49:47;;;;;;;6.2;5.200001;;;;;;;5.15;69.52539;95450.87;;;;
2019/04/29 03:50:48;;;;;;;6.7;5.299999;;;;;;;4.91;69.53027;95450.84;;;;
2019/04/29 03:51:49;;;;;;;6.7;5.299999;;;;;;;4.91;69.53027;95450.84;;;;
2019/04/29 03:52:50;;;;;;;6.7;5.299999;;;;;;;4.91;69.53027;95450.84;;;;
2019/04/29 03:53:52;;;;;;;6.7;5.299999;;;;;;;4.91;69.53027;95450.84;;;;
2019/04/29 03:54:53;;;;;;;6.7;5.299999;;;;;;;4.91;69.53027;95450.84;;;;
2019/04/29 03:55:55;;;;;;;6.7;5.299999;;;;;;;4.91;69.53027;95450.84;;;;
2019/04/29 03:56:56;;;;;;;6.7;5.299999;;;;;;;4.91;69.53027;95450.84;;;;
2019/04/29 03:57:57;;;;;;;6.7;5.299999;;;;;;;4.91;69.53027;95450.84;;;;
2019/04/29 03:58:58;;;;;;;6.7;5.299999;;;;;;;4.91;69.53027;95450.84;;;;
2019/04/29 03:59:59;;;;;;;6.7;5.299999;;;;;;;4.91;69.53027;95450.84;;;;
2019/04/29 04:01:38;;;;;;;6.7;5.299999;;;;;;;4.91;69.53027;95450.84;;;;
2019/04/29 04:02:49;;;;;;;8.85;5.849999;;;;;;;4.73;69.89063;95451.86;;;;
2019/04/29 04:03:55;;;;;;;8.85;5.849999;;;;;;;4.73;69.89063;95451.86;;;;
2019/04/29 04:05:03;;;;;;;8.85;5.849999;;;;;;;4.73;69.89063;95451.86;;;;
2019/04/29 04:06:16;;;;;;;8.85;5.849999;;;;;;;4.73;69.89063;95451.86;;;;
2019/04/29 04:07:53;;;;;;;8.85;5.849999;;;;;;;4.73;69.89063;95451.86;;;;
2019/04/29 04:09:06;;;;;;;8.85;5.849999;;;;;;;4.73;69.89063;95451.86;;;;
2019/04/29 04:10:07;;;;;;;8.85;5.849999;;;;;;;4.73;69.89063;95451.86;;;;
2019/04/29 04:11:09;;;;;;;8.85;5.849999;;;;;;;4.73;69.89063;95451.86;;;;
2019/04/29 04:12:10;;;;;;;8.4;6.3;;;;;;;4.55;70.47461;95470.24;;;;
2019/04/29 04:13:11;;;;;;;8.4;6.3;;;;;;;4.55;70.47461;95470.24;;;;
2019/04/29 04:14:12;;;;;;;8.4;6.3;;;;;;;4.55;70.47461;95470.24;;;;
2019/04/29 04:15:13;;;;;;;8.4;6.3;;;;;;;4.55;70.47461;95470.24;;;;
2019/04/29 04:16:25;;;;;;;8.4;6.3;;;;;;;4.55;70.47461;95470.24;;;;
2019/04/29 04:17:33;;;;;;;8.4;6.3;;;;;;;4.55;70.47461;95470.24;;;;
2019/04/29 04:18:35;;;;;;;8.4;6.3;;;;;;;4.55;70.47461;95470.24;;;;
2019/04/29 04:19:36;;;;;;;8.4;6.3;;;;;;;4.55;70.47461;95470.24;;;;
2019/04/29 04:20:37;;;;;;;8.4;6.3;;;;;;;4.55;70.47461;95470.24;;;;
2019/04/29 04:21:38;;;;;;;8.4;6.3;;;;;;;4.55;70.47461;95470.24;;;;
2019/04/29 04:22:46;;;;;;;8.4;6.3;;;;;;;4.55;70.47461;95470.24;;;;
2019/04/29 04:23:47;;;;;;;9.45;7.200001;;;;;;;4.46;70.61914;95466.48;;;;
2019/04/29 04:24:50;;;;;;;9.45;7.200001;;;;;;;4.46;70.61914;95466.48;;;;
2019/04/29 04:25:52;;;;;;;9.45;7.200001;;;;;;;4.46;70.61914;95466.48;;;;
2019/04/29 04:26:53;;;;;;;9.45;7.200001;;;;;;;4.46;70.61914;95466.48;;;;
2019/04/29 04:27:54;;;;;;;9.45;7.200001;;;;;;;4.46;70.61914;95466.48;;;;
2019/04/29 04:28:55;;;;;;;9.45;7.200001;;;;;;;4.46;70.61914;95466.48;;;;
2019/04/29 04:29:56;;;;;;;9.45;7.200001;;;;;;;4.46;70.61914;95466.48;;;;
2019/04/29 04:30:57;;;;;;;9.45;7.200001;;;;;;;4.46;70.61914;95466.48;;;;
2019/04/29 04:31:58;;;;;;;9.45;7.200001;;;;;;;4.46;70.61914;95466.48;;;;
2019/04/29 04:32:59;;;;;;;9.45;7.200001;;;;;;;4.46;70.61914;95466.48;;;;
2019/04/29 04:34:00;;;;;;;9.35;6.649999;;;;;;;4.31;70.93164;95477.78;;;;
2019/04/29 04:35:01;;;;;;;9.35;6.649999;;;;;;;4.31;70.93164;95477.78;;;;
2019/04/29 04:36:02;;;;;;;9.35;6.649999;;;;;;;4.31;70.93164;95477.78;;;;
2019/04/29 04:37:03;;;;;;;9.35;6.649999;;;;;;;4.31;70.93164;95477.78;;;;
2019/04/29 04:38:04;;;;;;;9.35;6.649999;;;;;;;4.31;70.93164;95477.78;;;;
2019/04/29 04:39:05;;;;;;;9.35;6.649999;;;;;;;4.31;70.93164;95477.78;;;;
2019/04/29 04:40:07;;;;;;;9.35;6.649999;;;;;;;4.31;70.93164;95477.78;;;;
2019/04/29 04:41:08;;;;;;;9.35;6.649999;;;;;;;4.31;70.93164;95477.78;;;;
2019/04/29 04:42:10;;;;;;;9.35;6.649999;;;;;;;4.31;70.93164;95477.78;;;;
2019/04/29 04:43:11;;;;;;;9.35;6.649999;;;;;;;4.31;70.93164;95477.78;;;;
2019/04/29 04:44:12;;;;;;;10.85;7.299999;;;;;;;4.38;71.11133;95489.43;;;;
2019/04/29 04:45:13;;;;;;;10.85;7.299999;;;;;;;4.38;71.11133;95489.43;;;;
2019/04/29 04:46:14;;;;;;;10.85;7.299999;;;;;;;4.38;71.11133;95489.43;;;;
2019/04/29 04:47:15;;;;;;;10.85;7.299999;;;;;;;4.38;71.11133;95489.43;;;;
2019/04/29 04:48:17;;;;;;;10.85;7.299999;;;;;;;4.38;71.11133;95489.43;;;;
2019/04/29 04:49:18;;;;;;;10.85;7.299999;;;;;;;4.38;71.11133;95489.43;;;;
2019/04/29 04:50:19;;;;;;;10.85;7.299999;;;;;;;4.38;71.11133;95489.43;;;;
2019/04/29 04:51:20;;;;;;;10.85;7.299999;;;;;;;4.38;71.11133;95489.43;;;;
2019/04/29 04:52:21;;;;;;;10.85;7.299999;;;;;;;4.38;71.11133;95489.43;;;;
2019/04/29 04:53:22;;;;;;;10.85;7.299999;;;;;;;4.38;71.11133;95489.43;;;;
2019/04/29 04:54:23;;;;;;;10.85;7.299999;;;;;;;4.38;71.11133;95489.43;;;;
2019/04/29 04:55:26;;;;;;;9.149999;7.3;;;;;;;4.56;70.96191;95500.48;;;;
2019/04/29 04:56:28;;;;;;;9.149999;7.3;;;;;;;4.56;70.96191;95500.48;;;;
2019/04/29 04:57:29;;;;;;;9.149999;7.3;;;;;;;4.56;70.96191;95500.48;;;;
2019/04/29 04:58:30;;;;;;;9.149999;7.3;;;;;;;4.56;70.96191;95500.48;;;;
2019/04/29 04:59:31;;;;;;;9.149999;7.3;;;;;;;4.56;70.96191;95500.48;;;;
2019/04/29 05:00:33;;;;;;;9.149999;7.3;;;;;;;4.56;70.96191;95500.48;;;;
2019/04/29 05:01:35;;;;;;;9.149999;7.3;;;;;;;4.56;70.96191;95500.48;;;;
2019/04/29 05:02:36;;;;;;;9.149999;7.3;;;;;;;4.56;70.96191;95500.48;;;;
2019/04/29 05:03:37;;;;;;;9.149999;7.3;;;;;;;4.56;70.96191;95500.48;;;;
2019/04/29 05:04:38;;;;;;;9.149999;7.3;;;;;;;4.56;70.96191;95500.48;;;;
2019/04/29 05:05:39;;;;;;;9.750001;7.749999;;;;;;;4.95;70.72949;95499.05;;;;
2019/04/29 05:06:40;;;;;;;9.750001;7.749999;;;;;;;4.95;70.72949;95499.05;;;;
2019/04/29 05:07:42;;;;;;;9.750001;7.749999;;;;;;;4.95;70.72949;95499.05;;;;
2019/04/29 05:08:43;;;;;;;9.750001;7.749999;;;;;;;4.95;70.72949;95499.05;;;;
2019/04/29 05:09:44;;;;;;;9.750001;7.749999;;;;;;;4.95;70.72949;95499.05;;;;
2019/04/29 05:10:45;;;;;;;9.750001;7.749999;;;;;;;4.95;70.72949;95499.05;;;;
2019/04/29 05:11:46;;;;;;;9.750001;7.749999;;;;;;;4.95;70.72949;95499.05;;;;
2019/04/29 05:12:47;;;;;;;9.750001;7.749999;;;;;;;4.95;70.72949;95499.05;;;;
2019/04/29 05:13:48;;;;;;;9.750001;7.749999;;;;;;;4.95;70.72949;95499.05;;;;
2019/04/29 05:14:49;;;;;;;9.750001;7.749999;;;;;;;4.95;70.72949;95499.05;;;;
2019/04/29 05:15:50;;;;;;;9.800001;7.3;;;;;;;5.36;70.44824;95504.3;;;;
2019/04/29 05:16:51;;;;;;;9.800001;7.3;;;;;;;5.36;70.44824;95504.3;;;;
2019/04/29 05:17:52;;;;;;;9.800001;7.3;;;;;;;5.36;70.44824;95504.3;;;;
2019/04/29 05:18:53;;;;;;;9.800001;7.3;;;;;;;5.36;70.44824;95504.3;;;;
2019/04/29 05:19:54;;;;;;;9.800001;7.3;;;;;;;5.36;70.44824;95504.3;;;;
2019/04/29 05:20:56;;;;;;;9.800001;7.3;;;;;;;5.36;70.44824;95504.3;;;;
2019/04/29 05:21:57;;;;;;;9.800001;7.3;;;;;;;5.36;70.44824;95504.3;;;;
2019/04/29 05:22:58;;;;;;;9.800001;7.3;;;;;;;5.36;70.44824;95504.3;;;;
2019/04/29 05:23:59;;;;;;;9.800001;7.3;;;;;;;5.36;70.44824;95504.3;;;;
2019/04/29 05:25:00;;;;;;;9.800001;7.3;;;;;;;5.36;70.44824;95504.3;;;;
2019/04/29 05:26:01;;;;;;;9.800001;7.3;;;;;;;5.36;70.44824;95504.3;;;;
2019/04/29 05:27:02;;;;;;;9.5;7.299999;;;;;;;5.76;70.29199;95511.49;;;;
2019/04/29 05:28:03;;;;;;;9.5;7.299999;;;;;;;5.76;70.29199;95511.49;;;;
2019/04/29 05:29:04;;;;;;;9.5;7.299999;;;;;;;5.76;70.29199;95511.49;;;;
2019/04/29 05:30:05;;;;;;;9.5;7.299999;;;;;;;5.76;70.29199;95511.49;;;;
2019/04/29 05:31:06;;;;;;;9.5;7.299999;;;;;;;5.76;70.29199;95511.49;;;;
2019/04/29 05:32:07;;;;;;;9.5;7.299999;;;;;;;5.76;70.29199;95511.49;;;;
2019/04/29 05:33:09;;;;;;;9.5;7.299999;;;;;;;5.76;70.29199;95511.49;;;;
2019/04/29 05:34:10;;;;;;;9.5;7.299999;;;;;;;5.76;70.29199;95511.49;;;;
2019/04/29 05:35:15;;;;;;;9.5;7.299999;;;;;;;5.76;70.29199;95511.49;;;;
2019/04/29 05:36:37;;;;;;;9.5;7.299999;;;;;;;5.76;70.29199;95511.49;;;;
2019/04/29 05:37:47;;;;;;;8.749999;6.9;;;;;;;6.23;69.87012;95513.3;;;;
2019/04/29 05:38:52;;;;;;;8.749999;6.9;;;;;;;6.23;69.87012;95513.3;;;;
2019/04/29 05:39:53;;;;;;;8.749999;6.9;;;;;;;6.23;69.87012;95513.3;;;;
2019/04/29 05:40:54;;;;;;;8.749999;6.9;;;;;;;6.23;69.87012;95513.3;;;;
2019/04/29 05:41:55;;;;;;;8.749999;6.9;;;;;;;6.23;69.87012;95513.3;;;;
2019/04/29 05:42:56;;;;;;;8.749999;6.9;;;;;;;6.23;69.87012;95513.3;;;;
2019/04/29 05:44:05;;;;;;;8.749999;6.9;;;;;;;6.23;69.87012;95513.3;;;;
2019/04/29 05:45:44;;;;;;;8.749999;6.9;;;;;;;6.23;69.87012;95513.3;;;;
2019/04/29 05:46:50;;;;;;;8.749999;6.9;;;;;;;6.23;69.87012;95513.3;;;;
2019/04/29 05:47:57;;;;;;;9.499999;6.95;;;;;;;7.07;69.24023;95515.7;;;;
2019/04/29 05:48:59;;;;;;;9.499999;6.95;;;;;;;7.07;69.24023;95515.7;;;;
2019/04/29 05:50:22;;;;;;;9.499999;6.95;;;;;;;7.07;69.24023;95515.7;;;;
2019/04/29 05:51:29;;;;;;;9.499999;6.95;;;;;;;7.07;69.24023;95515.7;;;;
2019/04/29 05:52:36;;;;;;;9.499999;6.95;;;;;;;7.07;69.24023;95515.7;;;;
2019/04/29 05:53:41;;;;;;;9.499999;6.95;;;;;;;7.07;69.24023;95515.7;;;;
2019/04/29 05:54:43;;;;;;;9.499999;6.95;;;;;;;7.07;69.24023;95515.7;;;;
2019/04/29 05:55:44;;;;;;;9.499999;6.95;;;;;;;7.07;69.24023;95515.7;;;;
2019/04/29 05:56:45;;;;;;;9.499999;6.95;;;;;;;7.07;69.24023;95515.7;;;;
2019/04/29 05:57:46;;;;;;;9.499999;6.95;;;;;;;7.07;69.24023;95515.7;;;;
2019/04/29 05:58:47;;;;;;;8.050002;6.75;;;;;;;7.77;68.58691;95514.77;;;;
2019/04/29 05:59:48;;;;;;;8.050002;6.75;;;;;;;7.77;68.58691;95514.77;;;;
2019/04/29 06:00:54;;;;;;;8.050002;6.75;;;;;;;7.77;68.58691;95514.77;;;;
2019/04/29 06:01:56;;;;;;;8.050002;6.75;;;;;;;7.77;68.58691;95514.77;;;;
2019/04/29 06:02:57;;;;;;;8.050002;6.75;;;;;;;7.77;68.58691;95514.77;;;;
2019/04/29 06:03:58;;;;;;;8.050002;6.75;;;;;;;7.77;68.58691;95514.77;;;;
2019/04/29 06:04:59;;;;;;;8.050002;6.75;;;;;;;7.77;68.58691;95514.77;;;;
2019/04/29 06:06:00;;;;;;;8.050002;6.75;;;;;;;7.77;68.58691;95514.77;;;;
2019/04/29 06:07:01;;;;;;;8.050002;6.75;;;;;;;7.77;68.58691;95514.77;;;;
2019/04/29 06:08:02;;;;;;;8.050002;6.75;;;;;;;7.77;68.58691;95514.77;;;;
2019/04/29 06:09:04;;;;;;;9.4;6.4;;;;;;;8.57;67.64453;95525.45;;;;
2019/04/29 06:10:06;;;;;;;9.4;6.4;;;;;;;8.57;67.64453;95525.45;;;;